Aérodrome :
LOGIN :

S'inscrire | Disclaimer

   EN    FR    IT 

 










Légende :    VFR   VFR Marginal   IFR   IFR Intensif   IFR Très Intensif
Visi : 
Plafond : 
>= 8 km
>= 3000ft
5 à 8 km
1000 à 3000 ft
1500m à 5 km
500 à 1000 ft
800 à 1500m
200 à 500 ft
< 800m
< 200 ft
Symboles :   Orages  Brouillard  Fortes neiges  Fortes précipitations  Vent > 20 kt
SIGMETs :   Divers  Orages  Givrage  Turbulence  Onde Orograph.  Cendres Volcan.







- Altitude de l'aérodrome : 1768 ft


LEHC - Huesca Pirineos

DERNIER METAR :
  • 221630Z AUTO 26018KT 9999 NCD 04/02 Q1007

METARs EXPIRÉS :
  • 221600Z 26018KT 9999 SCT012 04/02 Q1007
  • 221530Z 26017KT 9999 FEW013 04/02 Q1007
  • 221500Z 26017KT 9999 FEW013 05/02 Q1008
  • 221430Z 26019G29KT 230V290 9999 FEW017 05/02 Q1009
  • 221400Z 27020KT 240V300 9999 FEW020 05/01 Q1009

TAF AMD TAF LEHC
Valide du 22 à 13h jusqu'au 23 à 09h UTC


221343Z 2213/2309 30012KT 9999 FEW020 TX06/2213Z TN01/2306Z
TEMPO 2214/2217 30018KT
TEMPO 2213/2220 3000 RA BKN020
TEMPO 2220/2304 3000 BR BKN010
TEMPO 2304/2309 4000 RA BKN020
BECMG 2306/2308 30018KT
Pas de NOTAMs connus pour ce terrain.
1 SIGMET publié pour la FIR Madrid (LECM) :
 
Onde orographique forte
LECM SIGMET 3 VALID 221300/221700 LEVA
LECM MADRID FIR/UIR SEV MTW FCST N OF LINE N4240 W001 - N4230 E00010 FL060/360 STNR NC=



MET'MAP, la Météo Aéronautique d'un coup d'oeil ! - Copyright ORBIFLY Décembre 2007 - Disclaimer

ORBIFLY MET'MAP TEAM :

Programmation & Développement : Alexandra Zaïnal
Conception & Développement : Baudouin d'Aumeries
Co-Programmation & Développement : Marc-Olivier Méhu
Soutien technique & logistique : Manuel Goepfert

Contact : metmap@orbifly.com




SOURCES & CREDITS :

   NOAA